Time;durP1;ratioP1;P1;durP2;ratioP2;P2;SDS_P1;SDS_P2;PMS_P1;PMS_P2;Temp;Humidity;BMP_temperature;BMP_pressure;BME280_temperature;BME280_humidity;BME280_pressure;Samples;Min_cycle;Max_cycle;Signal;HPM_P1;HPM_P2
2021/01/11 00:00:17;;;;;;;7.38;1.73;;;1.80;99.90;;;;;;4964298;28;20132;-70
2021/01/11 00:02:43;;;;;;;7.25;1.40;;;1.80;99.90;;;;;;4964079;28;20517;-65
2021/01/11 00:05:11;;;;;;;8.07;0.90;;;1.80;99.90;;;;;;4962987;28;20039;-65
2021/01/11 00:07:40;;;;;;;4.07;0.73;;;1.80;99.90;;;;;;4963416;28;20459;-65
2021/01/11 00:10:11;;;;;;;5.72;1.52;;;1.80;99.90;;;;;;4963673;28;20141;-65
2021/01/11 00:12:42;;;;;;;5.57;1.20;;;1.80;99.90;;;;;;4964243;28;20063;-67
2021/01/11 00:15:11;;;;;;;1.52;0.90;;;1.90;99.90;;;;;;4963906;28;20065;-64
2021/01/11 00:17:37;;;;;;;3.33;0.80;;;1.90;99.90;;;;;;4963433;28;20039;-64
2021/01/11 00:20:07;;;;;;;2.92;0.75;;;1.90;99.90;;;;;;4963934;28;20039;-68
2021/01/11 00:22:34;;;;;;;4.38;1.13;;;1.90;99.90;;;;;;4963808;28;20046;-68
2021/01/11 00:25:02;;;;;;;7.13;1.35;;;1.80;99.90;;;;;;4963931;28;20419;-69
2021/01/11 00:27:28;;;;;;;4.65;0.80;;;1.80;99.90;;;;;;4962186;28;20086;-70
2021/01/11 00:29:55;;;;;;;5.00;1.38;;;1.90;99.90;;;;;;4964137;28;20145;-69
2021/01/11 00:32:21;;;;;;;5.82;1.15;;;1.90;99.90;;;;;;4962920;28;20055;-64
2021/01/11 00:34:48;;;;;;;2.38;0.77;;;1.90;99.90;;;;;;4963322;28;20494;-67
2021/01/11 00:37:14;;;;;;;6.00;1.17;;;1.90;99.90;;;;;;4961159;28;20442;-65
2021/01/11 00:39:41;;;;;;;3.03;0.88;;;1.90;99.90;;;;;;4964175;28;20059;-67
2021/01/11 00:42:08;;;;;;;4.10;1.17;;;1.90;99.90;;;;;;4963197;28;20051;-67
2021/01/11 00:44:34;;;;;;;5.95;1.27;;;2.00;99.90;;;;;;4962532;28;20051;-65
2021/01/11 00:47:04;;;;;;;6.60;2.03;;;2.00;99.90;;;;;;4963014;28;20043;-66
2021/01/11 00:49:31;;;;;;;7.50;1.45;;;1.90;99.90;;;;;;4962925;28;20129;-69
2021/01/11 00:51:58;;;;;;;4.70;1.05;;;1.90;99.90;;;;;;4962912;28;20166;-67
2021/01/11 00:54:26;;;;;;;5.28;1.83;;;1.90;99.90;;;;;;4957765;28;20047;-69
2021/01/11 00:56:55;;;;;;;4.32;1.13;;;1.90;99.90;;;;;;4962560;28;20047;-67
2021/01/11 00:59:42;;;;;;;2.13;1.48;;;1.90;99.90;;;;;;4969750;28;20046;-65
2021/01/11 01:02:09;;;;;;;5.50;1.20;;;1.90;99.90;;;;;;4962411;28;20851;-66
2021/01/11 01:04:35;;;;;;;4.40;1.02;;;1.90;99.90;;;;;;4963480;28;20538;-70
2021/01/11 01:07:03;;;;;;;11.50;1.30;;;1.90;99.90;;;;;;4963154;28;20051;-71
2021/01/11 01:09:30;;;;;;;4.82;1.23;;;1.90;99.90;;;;;;4962471;28;20058;-70
2021/01/11 01:11:56;;;;;;;4.43;0.95;;;1.90;99.90;;;;;;4962565;28;20410;-66
2021/01/11 01:14:23;;;;;;;4.50;0.98;;;1.90;99.90;;;;;;4963946;28;20058;-67
2021/01/11 01:16:49;;;;;;;4.30;1.17;;;2.00;99.90;;;;;;4963773;28;20057;-68
2021/01/11 01:19:17;;;;;;;4.97;1.52;;;2.00;99.90;;;;;;4962460;28;20046;-63
2021/01/11 01:21:43;;;;;;;7.05;1.40;;;1.90;99.90;;;;;;4963430;28;20058;-65
2021/01/11 01:24:10;;;;;;;5.75;1.30;;;1.90;99.90;;;;;;4962704;28;20367;-67
2021/01/11 01:26:36;;;;;;;3.42;0.90;;;1.90;99.90;;;;;;4963924;28;20055;-64
2021/01/11 01:29:03;;;;;;;8.73;2.75;;;1.90;99.90;;;;;;4963796;28;20138;-67
2021/01/11 01:31:29;;;;;;;8.80;2.17;;;1.90;99.90;;;;;;4962377;28;20117;-67
2021/01/11 01:33:56;;;;;;;8.65;2.78;;;1.90;99.90;;;;;;4963411;28;20522;-64
2021/01/11 01:36:23;;;;;;;6.20;1.30;;;1.80;99.90;;;;;;4963773;28;20043;-67
2021/01/11 01:38:49;;;;;;;5.22;1.25;;;1.80;99.90;;;;;;4962781;28;20078;-70
2021/01/11 01:41:16;;;;;;;4.93;1.08;;;1.80;99.90;;;;;;4962195;28;20395;-65
2021/01/11 01:43:42;;;;;;;3.97;1.20;;;1.80;99.90;;;;;;4963207;28;20499;-67
2021/01/11 01:46:14;;;;;;;5.50;1.35;;;1.90;99.90;;;;;;4965137;28;20062;-65
2021/01/11 01:48:42;;;;;;;3.33;0.85;;;1.90;99.90;;;;;;4959881;28;20043;-67
2021/01/11 01:51:09;;;;;;;3.70;1.27;;;1.90;99.90;;;;;;4966574;28;20059;-64
2021/01/11 01:53:36;;;;;;;5.18;1.33;;;1.90;99.90;;;;;;4964487;28;20055;-67
2021/01/11 01:56:04;;;;;;;4.05;1.58;;;1.90;99.90;;;;;;4958378;28;20055;-64
2021/01/11 01:58:31;;;;;;;2.70;0.90;;;1.80;99.90;;;;;;4966571;28;20054;-64
2021/01/11 02:00:58;;;;;;;4.75;1.33;;;1.90;99.90;;;;;;4966364;28;20113;-67
2021/01/11 02:03:25;;;;;;;4.25;1.20;;;1.90;99.90;;;;;;4956212;28;20506;-64
2021/01/11 02:05:51;;;;;;;7.20;1.08;;;1.80;99.90;;;;;;4966597;28;20154;-64
2021/01/11 02:08:42;;;;;;;5.18;1.10;;;1.90;99.90;;;;;;4966313;28;20051;-67
2021/01/11 02:11:30;;;;;;;9.02;2.28;;;1.90;99.90;;;;;;4962837;28;20074;-65
2021/01/11 02:14:28;;;;;;;4.30;0.93;;;1.90;99.90;;;;;;4965653;28;20031;-64
2021/01/11 02:17:16;;;;;;;2.58;0.90;;;1.90;99.90;;;;;;4965292;28;20059;-64
2021/01/11 02:20:11;;;;;;;5.28;0.93;;;1.90;99.90;;;;;;4964460;28;20064;-71
2021/01/11 02:23:07;;;;;;;6.75;2.10;;;1.90;99.90;;;;;;4965146;28;20050;-67
2021/01/11 02:25:53;;;;;;;5.88;2.05;;;1.90;99.90;;;;;;4963733;28;20122;-66
2021/01/11 02:28:51;;;;;;;6.47;2.13;;;2.00;99.90;;;;;;4962069;28;20125;-68
2021/01/11 02:31:21;;;;;;;3.75;1.15;;;2.00;99.90;;;;;;4958223;28;20136;-67
2021/01/11 02:33:51;;;;;;;5.53;4.22;;;2.00;99.90;;;;;;4964621;28;20065;-67
2021/01/11 02:36:19;;;;;;;7.43;1.30;;;2.00;99.90;;;;;;4966225;28;20141;-65
2021/01/11 02:38:48;;;;;;;6.57;1.08;;;2.00;99.90;;;;;;4964708;28;20050;-67
2021/01/11 02:41:14;;;;;;;9.55;1.05;;;2.00;99.90;;;;;;4964032;28;20641;-67
2021/01/11 02:43:41;;;;;;;7.07;1.45;;;2.00;99.90;;;;;;4965313;28;20130;-66
2021/01/11 02:46:07;;;;;;;7.55;1.20;;;2.00;99.90;;;;;;4965523;28;20030;-65
2021/01/11 02:48:52;;;;;;;4.70;1.10;;;2.00;99.90;;;;;;4960288;28;20403;-65
2021/01/11 02:51:26;;;;;;;13.07;1.52;;;2.00;99.90;;;;;;4961577;28;20092;-68
2021/01/11 02:54:15;;;;;;;2.92;1.05;;;1.90;99.90;;;;;;4964810;28;20747;-66
2021/01/11 02:56:52;;;;;;;6.78;2.60;;;2.00;99.90;;;;;;4964939;28;20071;-65
2021/01/11 02:59:23;;;;;;;1.70;0.90;;;2.00;99.90;;;;;;4962614;28;20161;-64
2021/01/11 03:01:57;;;;;;;7.68;1.02;;;2.00;99.90;;;;;;4961065;28;20494;-65
2021/01/11 03:04:25;;;;;;;3.78;0.93;;;2.00;99.90;;;;;;4959272;28;20533;-71
2021/01/11 03:06:57;;;;;;;3.35;0.85;;;1.90;99.90;;;;;;4964447;28;20035;-70
2021/01/11 03:09:24;;;;;;;3.75;1.40;;;1.90;99.90;;;;;;4961688;28;20043;-68
2021/01/11 03:11:51;;;;;;;6.68;1.60;;;1.90;99.90;;;;;;4965468;28;20153;-66
2021/01/11 03:14:22;;;;;;;3.15;1.05;;;1.90;99.90;;;;;;4965981;28;20082;-67
2021/01/11 03:17:31;;;;;;;3.95;0.98;;;1.90;99.90;;;;;;4974103;28;20151;-68
2021/01/11 03:19:58;;;;;;;5.75;0.90;;;2.00;99.90;;;;;;4963585;28;20082;-68
2021/01/11 03:22:24;;;;;;;8.40;2.70;;;2.10;99.90;;;;;;4962217;28;20058;-68
2021/01/11 03:24:51;;;;;;;8.90;1.50;;;2.10;99.90;;;;;;4965228;28;20062;-66
2021/01/11 03:27:17;;;;;;;4.88;1.42;;;2.20;99.90;;;;;;4964477;28;20328;-67
2021/01/11 03:29:44;;;;;;;3.25;1.83;;;2.20;99.90;;;;;;4962763;28;20046;-66
2021/01/11 03:32:10;;;;;;;3.30;1.15;;;2.20;99.90;;;;;;4963212;28;20074;-65
2021/01/11 03:34:36;;;;;;;9.15;2.47;;;2.10;99.90;;;;;;4961707;28;20058;-69
2021/01/11 03:37:03;;;;;;;4.70;2.05;;;2.10;99.90;;;;;;4963794;28;20138;-69
2021/01/11 03:39:29;;;;;;;4.63;1.00;;;2.10;99.90;;;;;;4963225;28;20070;-65
2021/01/11 03:41:56;;;;;;;4.18;1.40;;;2.10;99.90;;;;;;4962561;28;20117;-67
2021/01/11 03:44:22;;;;;;;2.15;1.13;;;2.10;99.90;;;;;;4964173;28;20058;-67
2021/01/11 03:46:49;;;;;;;6.20;2.03;;;2.00;99.90;;;;;;4960087;28;20443;-64
2021/01/11 03:49:15;;;;;;;2.25;0.88;;;2.00;99.90;;;;;;4962720;28;20736;-66
2021/01/11 03:51:42;;;;;;;7.63;1.63;;;2.00;99.90;;;;;;4965455;28;20038;-64
2021/01/11 03:54:08;;;;;;;2.58;1.00;;;1.90;99.90;;;;;;4963284;28;20125;-67
2021/01/11 03:56:34;;;;;;;7.40;1.20;;;2.00;99.90;;;;;;4964901;28;20055;-65
2021/01/11 03:59:02;;;;;;;2.63;1.25;;;1.90;99.90;;;;;;4964581;28;20050;-64
2021/01/11 04:01:29;;;;;;;4.28;1.27;;;1.80;99.90;;;;;;4962962;28;20531;-67
2021/01/11 04:03:56;;;;;;;1.63;1.05;;;1.80;99.90;;;;;;4961281;28;20050;-66
2021/01/11 04:06:23;;;;;;;3.88;0.88;;;1.80;99.90;;;;;;4964065;28;20482;-66
2021/01/11 04:08:49;;;;;;;3.67;0.98;;;1.80;99.90;;;;;;4962552;28;20133;-66
2021/01/11 04:11:22;;;;;;;4.68;1.33;;;1.70;99.90;;;;;;4962086;28;20054;-67
2021/01/11 04:13:48;;;;;;;5.95;0.80;;;1.70;99.90;;;;;;4961747;28;20108;-67
2021/01/11 04:16:16;;;;;;;3.15;0.80;;;1.70;99.90;;;;;;4964129;28;20065;-65
2021/01/11 04:18:44;;;;;;;6.47;1.33;;;1.60;99.90;;;;;;4964231;28;20046;-70
2021/01/11 04:21:12;;;;;;;5.03;1.40;;;1.60;99.90;;;;;;4962126;28;20360;-70
2021/01/11 04:23:39;;;;;;;5.18;2.28;;;1.60;99.90;;;;;;4963803;28;20133;-67
2021/01/11 04:26:10;;;;;;;2.80;1.17;;;1.60;99.90;;;;;;4960779;28;20081;-68
2021/01/11 04:28:36;;;;;;;5.72;1.65;;;1.60;99.90;;;;;;4963807;28;20046;-65
2021/01/11 04:31:04;;;;;;;3.30;2.33;;;1.70;99.90;;;;;;4964531;28;20132;-67
2021/01/11 04:33:31;;;;;;;1.35;1.20;;;1.70;99.90;;;;;;4961821;28;20055;-69
2021/01/11 04:35:58;;;;;;;5.30;2.20;;;1.60;99.90;;;;;;4964096;28;20074;-65
2021/01/11 04:38:24;;;;;;;9.90;1.73;;;1.60;99.90;;;;;;4958588;28;20109;-65
2021/01/11 04:40:51;;;;;;;4.35;1.10;;;1.60;99.90;;;;;;4961305;28;20137;-69
2021/01/11 04:43:18;;;;;;;5.43;1.23;;;1.60;99.90;;;;;;4962248;28;20053;-67
2021/01/11 04:45:46;;;;;;;6.25;1.20;;;1.60;99.90;;;;;;4964126;28;20062;-65
2021/01/11 04:48:14;;;;;;;8.80;1.45;;;1.60;99.90;;;;;;4963415;28;20055;-69
2021/01/11 04:50:45;;;;;;;1.42;1.08;;;1.60;99.90;;;;;;4963709;28;20382;-66
2021/01/11 04:53:11;;;;;;;8.20;2.08;;;1.60;99.90;;;;;;4962107;28;20730;-68
2021/01/11 04:55:39;;;;;;;6.55;1.92;;;1.60;99.90;;;;;;4963271;28;20153;-66
2021/01/11 04:58:10;;;;;;;7.18;1.65;;;1.60;99.90;;;;;;4959550;28;20070;-64
2021/01/11 05:00:38;;;;;;;10.60;1.83;;;1.60;99.90;;;;;;4959452;28;20054;-69
2021/01/11 05:03:09;;;;;;;5.07;1.67;;;1.60;99.90;;;;;;4963450;28;20621;-66
2021/01/11 05:05:40;;;;;;;10.13;1.85;;;1.60;99.90;;;;;;4963417;28;20891;-65
2021/01/11 05:08:08;;;;;;;14.23;2.70;;;1.70;99.90;;;;;;4961064;28;20070;-67
2021/01/11 05:10:36;;;;;;;3.22;1.00;;;1.70;99.90;;;;;;4964040;28;20656;-65
2021/01/11 05:13:04;;;;;;;2.67;1.17;;;1.60;99.90;;;;;;4960343;28;20053;-66
2021/01/11 05:15:33;;;;;;;1.85;1.45;;;1.60;99.90;;;;;;4963573;28;20132;-70
2021/01/11 05:18:00;;;;;;;9.57;1.92;;;1.60;99.90;;;;;;4964978;28;20050;-64
2021/01/11 05:20:28;;;;;;;5.03;2.75;;;1.60;99.90;;;;;;4967097;28;20058;-69
2021/01/11 05:22:59;;;;;;;8.35;1.65;;;1.60;99.90;;;;;;4967526;28;20046;-67
2021/01/11 05:25:27;;;;;;;7.07;1.40;;;1.60;99.90;;;;;;4970921;28;20164;-66
2021/01/11 05:28:09;;;;;;;6.78;1.50;;;1.60;99.90;;;;;;4974860;28;20048;-66
2021/01/11 05:30:54;;;;;;;5.93;1.75;;;1.60;99.90;;;;;;4970991;28;20058;-67
2021/01/11 05:33:23;;;;;;;9.93;1.75;;;1.60;99.90;;;;;;4965612;28;20121;-69
2021/01/11 05:36:03;;;;;;;8.40;2.25;;;1.60;99.90;;;;;;4967077;28;20124;-65
2021/01/11 05:38:48;;;;;;;5.38;1.58;;;1.50;99.90;;;;;;4964416;28;20089;-65
2021/01/11 05:41:17;;;;;;;7.38;1.35;;;1.50;99.90;;;;;;4965489;28;20078;-66
2021/01/11 05:44:08;;;;;;;6.18;1.40;;;1.40;99.90;;;;;;4966805;28;20149;-69
2021/01/11 05:46:35;;;;;;;6.07;2.42;;;1.40;99.90;;;;;;4967343;28;20046;-65
2021/01/11 05:49:05;;;;;;;11.43;1.88;;;1.40;99.90;;;;;;4966508;28;20039;-66
2021/01/11 05:51:33;;;;;;;4.30;1.70;;;1.40;99.90;;;;;;4965208;28;20133;-68
2021/01/11 05:54:00;;;;;;;5.43;2.30;;;1.30;99.90;;;;;;4965751;28;20113;-70
2021/01/11 05:56:27;;;;;;;8.50;1.70;;;1.30;99.90;;;;;;4967167;28;20082;-68
2021/01/11 05:59:04;;;;;;;6.45;1.95;;;1.30;99.90;;;;;;4966041;28;20058;-69
2021/01/11 06:01:32;;;;;;;6.80;3.13;;;1.30;99.90;;;;;;4965219;28;20073;-66
2021/01/11 06:04:06;;;;;;;4.97;2.03;;;1.20;99.90;;;;;;4965526;28;20097;-67
2021/01/11 06:06:33;;;;;;;5.80;1.63;;;1.20;99.90;;;;;;4966893;28;20471;-68
2021/01/11 06:08:59;;;;;;;6.40;1.90;;;1.20;99.90;;;;;;4964187;28;20046;-66
2021/01/11 06:11:27;;;;;;;5.85;2.20;;;1.20;99.90;;;;;;4964045;28;20876;-68
2021/01/11 06:13:58;;;;;;;3.70;2.17;;;1.20;99.90;;;;;;4965842;28;20444;-70
2021/01/11 06:16:25;;;;;;;4.47;1.30;;;1.20;99.90;;;;;;4966173;28;20046;-70
2021/01/11 06:18:53;;;;;;;9.15;2.17;;;1.20;99.90;;;;;;4965408;28;20051;-68
2021/01/11 06:21:21;;;;;;;5.45;2.22;;;1.30;99.90;;;;;;4964294;28;20775;-67
2021/01/11 06:24:08;;;;;;;3.75;1.40;;;1.20;99.90;;;;;;4961773;28;20102;-69
2021/01/11 06:26:36;;;;;;;7.63;1.67;;;1.20;99.90;;;;;;4964718;28;20499;-67
2021/01/11 06:29:26;;;;;;;4.35;1.30;;;1.20;99.90;;;;;;4964240;28;20074;-69
2021/01/11 06:31:57;;;;;;;5.35;1.70;;;1.20;99.90;;;;;;4964282;28;20042;-68
2021/01/11 06:34:37;;;;;;;7.50;2.30;;;1.10;99.90;;;;;;4964936;28;20039;-71
2021/01/11 06:37:19;;;;;;;8.30;1.95;;;1.10;99.90;;;;;;4965050;28;20046;-70
2021/01/11 06:39:47;;;;;;;3.70;2.10;;;1.00;99.90;;;;;;4964543;28;20057;-66
2021/01/11 06:42:14;;;;;;;10.30;2.13;;;1.00;99.90;;;;;;4965619;28;20050;-73
2021/01/11 06:44:47;;;;;;;10.13;1.88;;;1.00;99.90;;;;;;4966163;28;20123;-67
2021/01/11 06:47:27;;;;;;;4.93;2.10;;;0.90;99.90;;;;;;4963827;28;20078;-66
2021/01/11 06:50:07;;;;;;;7.38;2.30;;;0.90;99.90;;;;;;4966395;28;20711;-67
2021/01/11 06:52:58;;;;;;;5.53;1.98;;;1.00;99.90;;;;;;4963795;28;20120;-67
2021/01/11 06:55:25;;;;;;;8.75;2.25;;;0.90;99.90;;;;;;4963051;28;20054;-69
2021/01/11 06:57:59;;;;;;;4.63;1.83;;;0.90;99.90;;;;;;4965822;28;20786;-66
2021/01/11 07:00:29;;;;;;;4.93;1.58;;;0.90;99.90;;;;;;4961203;28;20070;-65
2021/01/11 07:02:57;;;;;;;8.40;2.00;;;0.90;99.90;;;;;;4964650;28;20458;-65
2021/01/11 07:05:33;;;;;;;9.63;3.90;;;0.90;99.90;;;;;;4964396;28;20051;-69
2021/01/11 07:08:04;;;;;;;5.70;2.15;;;0.90;99.90;;;;;;4959035;28;20050;-71
2021/01/11 07:10:32;;;;;;;8.15;3.38;;;0.90;99.90;;;;;;4962863;28;20061;-67
2021/01/11 07:13:17;;;;;;;6.85;2.30;;;0.90;99.90;;;;;;4965013;28;20141;-67
2021/01/11 07:15:52;;;;;;;3.28;1.77;;;0.90;99.90;;;;;;4961441;28;20054;-66
2021/01/11 07:18:37;;;;;;;5.60;2.58;;;0.90;99.90;;;;;;4964785;28;20545;-66
2021/01/11 07:21:21;;;;;;;10.15;3.20;;;0.90;99.90;;;;;;4963341;28;20047;-66
2021/01/11 07:23:48;;;;;;;5.43;2.10;;;0.90;99.90;;;;;;4963756;28;20039;-71
2021/01/11 07:26:24;;;;;;;5.90;2.22;;;0.90;99.90;;;;;;4963272;28;20133;-66
2021/01/11 07:28:54;;;;;;;6.00;2.90;;;0.90;99.90;;;;;;4964549;28;20051;-68
2021/01/11 07:31:22;;;;;;;5.57;2.00;;;0.90;99.90;;;;;;4960740;28;20651;-67
2021/01/11 07:34:01;;;;;;;8.60;2.67;;;0.90;99.90;;;;;;4963310;28;20074;-68
2021/01/11 07:36:29;;;;;;;4.75;1.90;;;0.90;99.90;;;;;;4964086;28;20046;-69
2021/01/11 07:39:06;;;;;;;5.55;2.03;;;0.90;99.90;;;;;;4963807;28;20589;-71
2021/01/11 07:41:33;;;;;;;6.32;2.22;;;0.90;99.90;;;;;;4958918;28;20569;-69
2021/01/11 07:44:13;;;;;;;4.32;2.08;;;0.90;99.90;;;;;;4964550;28;20125;-67
2021/01/11 07:46:39;;;;;;;7.10;2.67;;;0.90;99.90;;;;;;4959088;28;20194;-65
2021/01/11 07:49:16;;;;;;;5.38;2.50;;;1.00;99.90;;;;;;4962781;28;20074;-68
2021/01/11 07:51:45;;;;;;;6.20;2.15;;;0.90;99.90;;;;;;4963685;28;20065;-67
2021/01/11 07:54:30;;;;;;;7.25;2.30;;;0.90;99.90;;;;;;4962749;28;20113;-66
2021/01/11 07:56:58;;;;;;;5.63;2.00;;;0.90;99.90;;;;;;4964250;28;20058;-65
2021/01/11 07:59:24;;;;;;;5.50;2.63;;;0.90;99.90;;;;;;4962772;28;20589;-67
2021/01/11 08:01:51;;;;;;;3.72;2.15;;;0.90;99.90;;;;;;4964328;28;20046;-68
2021/01/11 08:04:19;;;;;;;4.75;2.75;;;0.90;99.90;;;;;;4963669;28;20066;-70
2021/01/11 08:06:56;;;;;;;7.57;2.80;;;0.90;99.90;;;;;;4964218;28;20565;-66
2021/01/11 08:09:29;;;;;;;7.93;2.65;;;0.90;99.90;;;;;;4962051;28;20046;-68
2021/01/11 08:12:11;;;;;;;8.00;2.15;;;0.90;99.90;;;;;;4963946;28;20043;-68
2021/01/11 08:14:41;;;;;;;4.93;1.95;;;1.00;99.90;;;;;;4965579;28;20047;-65
2021/01/11 08:17:15;;;;;;;9.85;3.03;;;1.00;99.90;;;;;;4964225;28;20054;-67
2021/01/11 08:19:42;;;;;;;5.65;4.30;;;1.10;99.90;;;;;;4962628;28;20046;-67
2021/01/11 08:22:10;;;;;;;7.82;3.30;;;1.10;99.90;;;;;;4962691;28;20050;-68
2021/01/11 08:24:37;;;;;;;6.20;3.38;;;1.10;99.90;;;;;;4964078;28;20121;-68
2021/01/11 08:27:07;;;;;;;12.93;3.15;;;1.10;99.90;;;;;;4963711;28;20047;-68
2021/01/11 08:29:36;;;;;;;5.28;4.00;;;1.10;99.90;;;;;;4962476;28;20704;-68
2021/01/11 08:32:06;;;;;;;7.25;3.55;;;1.10;99.90;;;;;;4964055;28;20050;-67
2021/01/11 08:34:33;;;;;;;9.75;2.42;;;1.20;99.90;;;;;;4964175;28;20054;-65
2021/01/11 08:36:59;;;;;;;8.52;2.17;;;1.20;99.90;;;;;;4962872;28;20101;-71
2021/01/11 08:39:26;;;;;;;4.63;2.00;;;1.20;99.90;;;;;;4962259;28;20051;-67
2021/01/11 08:41:54;;;;;;;5.97;1.88;;;1.20;99.90;;;;;;4962392;28;20109;-67
2021/01/11 08:44:29;;;;;;;5.03;1.95;;;1.30;99.90;;;;;;4963920;28;20153;-70
2021/01/11 08:47:02;;;;;;;9.80;2.63;;;1.40;99.90;;;;;;4963421;28;20498;-68
2021/01/11 08:49:30;;;;;;;4.35;1.92;;;1.40;99.90;;;;;;4962546;28;20101;-67
2021/01/11 08:52:11;;;;;;;6.97;2.25;;;1.50;99.90;;;;;;4963375;28;20406;-67
2021/01/11 08:54:38;;;;;;;7.05;2.28;;;1.50;99.90;;;;;;4962532;28;20362;-65
2021/01/11 08:57:12;;;;;;;6.97;1.88;;;1.50;99.90;;;;;;4967314;28;20047;-67
2021/01/11 08:59:52;;;;;;;3.35;1.70;;;1.50;99.90;;;;;;4965868;28;20035;-66
2021/01/11 09:02:29;;;;;;;10.73;1.77;;;1.60;99.90;;;;;;4967231;28;20059;-68
2021/01/11 09:04:57;;;;;;;3.67;1.63;;;1.60;99.90;;;;;;4960856;28;20498;-71
2021/01/11 09:07:31;;;;;;;3.35;1.30;;;1.60;99.90;;;;;;4964817;28;20062;-68
2021/01/11 09:09:59;;;;;;;2.72;1.63;;;1.60;99.90;;;;;;4967029;28;20082;-71
2021/01/11 09:12:31;;;;;;;5.97;1.77;;;1.70;99.90;;;;;;4966456;28;20054;-71
2021/01/11 09:14:58;;;;;;;4.38;1.60;;;1.70;99.90;;;;;;4967193;28;20348;-67
2021/01/11 09:17:29;;;;;;;5.78;1.08;;;1.70;99.90;;;;;;4964751;28;20467;-69
2021/01/11 09:20:00;;;;;;;4.68;2.13;;;1.70;99.90;;;;;;4964856;28;20047;-68
2021/01/11 09:22:35;;;;;;;4.18;1.35;;;1.70;99.90;;;;;;4966431;28;20055;-68
2021/01/11 09:25:04;;;;;;;4.75;1.00;;;1.70;99.90;;;;;;4964516;28;20057;-68
2021/01/11 09:27:31;;;;;;;5.05;1.35;;;1.70;99.90;;;;;;4965317;28;20201;-69
2021/01/11 09:29:58;;;;;;;3.45;2.38;;;1.80;99.90;;;;;;4966854;28;20467;-71
2021/01/11 09:32:24;;;;;;;8.00;1.63;;;1.80;99.90;;;;;;4966781;28;20713;-72
2021/01/11 09:34:51;;;;;;;2.88;1.20;;;1.80;99.90;;;;;;4965586;28;20051;-69
2021/01/11 09:37:18;;;;;;;3.63;1.35;;;1.80;99.90;;;;;;4964455;28;20063;-68
2021/01/11 09:39:44;;;;;;;10.45;2.75;;;1.80;99.90;;;;;;4964948;28;20085;-68
2021/01/11 09:42:11;;;;;;;2.00;0.90;;;1.80;99.90;;;;;;4966043;28;20046;-68
2021/01/11 09:44:38;;;;;;;5.13;1.27;;;1.80;99.90;;;;;;4967171;28;20122;-68
2021/01/11 09:47:07;;;;;;;5.83;1.47;;;1.80;99.90;;;;;;4966428;28;20145;-69
2021/01/11 09:49:34;;;;;;;4.10;1.65;;;1.80;99.90;;;;;;4964829;28;20359;-68
2021/01/11 09:52:01;;;;;;;3.05;1.05;;;1.90;99.90;;;;;;4965663;28;20134;-73
2021/01/11 09:54:27;;;;;;;2.92;1.27;;;1.90;99.90;;;;;;4966486;28;20054;-66
2021/01/11 09:56:58;;;;;;;4.32;1.30;;;1.90;99.90;;;;;;4966507;28;20061;-68
2021/01/11 09:59:25;;;;;;;5.68;1.55;;;1.80;99.90;;;;;;4964698;28;20121;-69
2021/01/11 10:01:54;;;;;;;5.18;1.30;;;1.90;99.90;;;;;;4966338;28;21152;-68
2021/01/11 10:04:21;;;;;;;3.80;1.52;;;1.90;99.90;;;;;;4965477;28;20055;-66
2021/01/11 10:06:56;;;;;;;4.95;1.83;;;1.90;99.90;;;;;;4964689;28;20446;-66
2021/01/11 10:09:30;;;;;;;7.43;1.45;;;2.00;99.90;;;;;;4963847;28;20066;-65
2021/01/11 10:11:59;;;;;;;4.22;1.40;;;2.00;99.90;;;;;;4964344;28;20142;-70
2021/01/11 10:14:27;;;;;;;2.05;1.17;;;2.00;99.90;;;;;;4962894;28;20085;-68
2021/01/11 10:16:53;;;;;;;4.50;1.70;;;2.00;99.90;;;;;;4966244;28;20588;-69
2021/01/11 10:19:22;;;;;;;4.13;2.17;;;2.00;99.90;;;;;;4963967;28;20145;-71
2021/01/11 10:21:49;;;;;;;3.75;1.30;;;2.10;99.90;;;;;;4965867;28;20093;-68
2021/01/11 10:24:18;;;;;;;5.40;1.25;;;2.10;99.90;;;;;;4964386;28;20043;-71
2021/01/11 10:26:50;;;;;;;5.13;1.40;;;2.10;99.90;;;;;;4965282;28;20055;-69
2021/01/11 10:29:18;;;;;;;4.45;1.40;;;2.10;99.90;;;;;;4962835;28;20058;-70
2021/01/11 10:31:45;;;;;;;4.22;1.42;;;2.10;99.90;;;;;;4965725;28;20050;-67
2021/01/11 10:34:13;;;;;;;7.97;2.03;;;2.10;99.90;;;;;;4965126;28;20113;-67
2021/01/11 10:36:45;;;;;;;4.63;1.48;;;2.10;99.90;;;;;;4965344;28;20047;-65
2021/01/11 10:39:12;;;;;;;5.07;2.10;;;2.10;99.90;;;;;;4963863;28;20054;-67
2021/01/11 10:41:39;;;;;;;8.30;2.30;;;2.10;99.90;;;;;;4965704;28;20482;-66
2021/01/11 10:44:07;;;;;;;3.17;1.83;;;2.10;99.90;;;;;;4965483;28;20117;-67
2021/01/11 10:46:34;;;;;;;4.63;1.48;;;2.10;99.90;;;;;;4965613;28;20570;-69
2021/01/11 10:49:02;;;;;;;5.82;2.20;;;2.00;99.90;;;;;;4964746;28;20126;-65
2021/01/11 10:51:32;;;;;;;6.28;1.50;;;2.10;99.90;;;;;;4964669;28;20046;-66
2021/01/11 10:53:58;;;;;;;1.42;0.95;;;2.10;99.90;;;;;;4963086;28;20050;-69
2021/01/11 10:56:26;;;;;;;4.88;1.38;;;2.20;99.90;;;;;;4965142;28;20820;-67
2021/01/11 10:58:52;;;;;;;5.38;1.48;;;2.20;99.90;;;;;;4965339;28;20051;-66
2021/01/11 11:01:19;;;;;;;8.20;1.50;;;2.20;99.90;;;;;;4963676;28;20050;-68
2021/01/11 11:03:45;;;;;;;2.47;0.95;;;2.20;99.90;;;;;;4963438;28;20074;-67
2021/01/11 11:06:19;;;;;;;9.93;1.88;;;2.30;99.90;;;;;;4965259;28;20035;-66
2021/01/11 11:08:46;;;;;;;9.90;3.28;;;2.30;99.90;;;;;;4964252;28;20244;-67
2021/01/11 11:11:13;;;;;;;8.60;1.77;;;2.30;99.90;;;;;;4962259;28;20742;-67
2021/01/11 11:13:40;;;;;;;5.70;1.17;;;2.20;99.90;;;;;;4965611;28;20078;-70
2021/01/11 11:16:08;;;;;;;5.88;2.50;;;2.30;99.90;;;;;;4964658;28;20055;-68
2021/01/11 11:18:35;;;;;;;3.67;1.05;;;2.20;99.90;;;;;;4964759;28;20151;-67
2021/01/11 11:21:05;;;;;;;6.78;1.85;;;2.20;99.90;;;;;;4964837;28;20053;-68
2021/01/11 11:23:31;;;;;;;8.43;3.65;;;2.20;99.90;;;;;;4961400;28;20046;-68
2021/01/11 11:25:59;;;;;;;4.25;1.60;;;2.20;99.90;;;;;;4964986;28;20400;-68
2021/01/11 11:28:30;;;;;;;2.90;1.35;;;2.20;99.90;;;;;;4964685;28;20059;-67
2021/01/11 11:30:56;;;;;;;5.35;1.40;;;2.20;99.90;;;;;;4961069;28;20164;-68
2021/01/11 11:33:24;;;;;;;1.55;1.00;;;2.20;99.90;;;;;;4961497;28;20102;-68
2021/01/11 11:35:51;;;;;;;4.05;2.75;;;2.20;99.90;;;;;;4964878;28;20149;-69
2021/01/11 11:38:21;;;;;;;3.65;1.70;;;2.20;99.90;;;;;;4962425;28;20478;-69
2021/01/11 11:40:51;;;;;;;12.23;1.95;;;2.10;99.90;;;;;;4962292;28;20165;-68
2021/01/11 11:43:18;;;;;;;6.83;1.30;;;2.10;99.90;;;;;;4962954;28;20589;-65
2021/01/11 11:45:45;;;;;;;6.03;1.33;;;2.10;99.90;;;;;;4964150;28;20039;-67
2021/01/11 11:48:13;;;;;;;5.45;1.90;;;2.10;99.90;;;;;;4964789;28;20047;-68
2021/01/11 11:50:41;;;;;;;5.13;1.75;;;2.10;99.90;;;;;;4964387;28;20066;-65
2021/01/11 11:53:07;;;;;;;6.75;1.63;;;2.10;99.90;;;;;;4963565;28;20071;-65
2021/01/11 11:55:35;;;;;;;2.40;1.42;;;2.00;99.90;;;;;;4962571;28;20049;-67
2021/01/11 11:58:02;;;;;;;5.50;1.92;;;2.00;99.90;;;;;;4963311;28;20844;-67
2021/01/11 12:00:28;;;;;;;8.70;1.83;;;2.00;99.90;;;;;;4963502;28;20054;-67
2021/01/11 12:03:13;;;;;;;3.80;1.80;;;1.90;99.90;;;;;;4961918;28;20575;-68
2021/01/11 12:05:40;;;;;;;4.00;1.80;;;1.90;99.90;;;;;;4963196;28;20678;-71
2021/01/11 12:08:06;;;;;;;10.55;2.53;;;1.90;99.90;;;;;;4961979;28;20071;-66
2021/01/11 12:10:33;;;;;;;3.38;1.65;;;1.90;99.90;;;;;;4963110;28;20105;-65
2021/01/11 12:13:00;;;;;;;8.98;2.38;;;1.90;99.90;;;;;;4962844;28;20034;-65
2021/01/11 12:15:26;;;;;;;9.88;2.35;;;1.90;99.90;;;;;;4962037;28;20142;-68
2021/01/11 12:17:53;;;;;;;9.48;3.05;;;1.80;99.90;;;;;;4963024;28;20137;-66
2021/01/11 12:20:19;;;;;;;6.25;2.30;;;1.80;99.90;;;;;;4962866;28;20046;-69
2021/01/11 12:22:46;;;;;;;4.93;2.28;;;1.80;99.90;;;;;;4962384;28;20054;-66
2021/01/11 12:25:13;;;;;;;7.50;2.35;;;1.80;99.90;;;;;;4961938;28;20046;-66
2021/01/11 12:27:40;;;;;;;7.78;2.20;;;1.80;99.90;;;;;;4962860;28;20133;-66
2021/01/11 12:30:07;;;;;;;4.53;2.10;;;1.80;99.90;;;;;;4962154;28;20564;-66
2021/01/11 12:32:37;;;;;;;5.60;2.28;;;1.80;99.90;;;;;;4963174;28;20053;-68
2021/01/11 12:35:04;;;;;;;6.10;2.85;;;1.80;99.90;;;;;;4963170;28;20046;-68
2021/01/11 12:37:30;;;;;;;7.45;2.15;;;1.70;99.90;;;;;;4960584;28;20086;-68
2021/01/11 12:39:56;;;;;;;6.57;2.60;;;1.70;99.90;;;;;;4963167;28;20066;-65
2021/01/11 12:42:23;;;;;;;12.23;2.65;;;1.70;99.90;;;;;;4962502;28;20151;-69
2021/01/11 12:44:51;;;;;;;7.57;2.67;;;1.70;99.90;;;;;;4963278;28;20082;-68
2021/01/11 12:47:18;;;;;;;6.18;2.67;;;1.70;99.90;;;;;;4960953;28;20046;-68
2021/01/11 12:49:45;;;;;;;6.60;2.28;;;1.70;99.90;;;;;;4962614;28;20372;-70
2021/01/11 12:52:12;;;;;;;8.25;2.38;;;1.70;99.90;;;;;;4961817;28;20112;-68
2021/01/11 12:54:39;;;;;;;6.10;2.63;;;1.70;99.90;;;;;;4963024;28;20653;-65
2021/01/11 12:57:06;;;;;;;8.88;3.67;;;1.70;99.90;;;;;;4962137;28;20113;-69
2021/01/11 12:59:33;;;;;;;5.50;2.63;;;1.70;99.90;;;;;;4961264;28;20136;-66
2021/01/11 13:01:59;;;;;;;9.85;2.88;;;1.80;99.90;;;;;;4962514;28;20107;-72
2021/01/11 13:04:26;;;;;;;7.43;2.85;;;1.70;99.90;;;;;;4961805;28;20161;-71
2021/01/11 13:06:53;;;;;;;8.93;2.40;;;1.70;99.90;;;;;;4962990;28;20049;-68
2021/01/11 13:09:20;;;;;;;3.85;2.28;;;1.70;99.90;;;;;;4960188;28;20047;-66
2021/01/11 13:11:46;;;;;;;6.93;3.45;;;1.70;99.90;;;;;;4962210;28;20128;-71